sensor_id;sensor_type;location;lat;lon;timestamp;P1;durP1;ratioP1;P2;durP2;ratioP2
20104;SDS011;10212;42.714;23.310;2023-01-15T00:08:43;30.30;;;16.33;;
20104;SDS011;10212;42.714;23.310;2023-01-15T00:18:48;27.00;;;14.77;;
20104;SDS011;10212;42.714;23.310;2023-01-15T00:28:50;32.95;;;16.92;;
20104;SDS011;10212;42.714;23.310;2023-01-15T00:38:50;33.83;;;16.92;;
20104;SDS011;10212;42.714;23.310;2023-01-15T00:48:51;33.28;;;17.20;;
20104;SDS011;10212;42.714;23.310;2023-01-15T00:58:52;32.35;;;17.52;;
20104;SDS011;10212;42.714;23.310;2023-01-15T01:08:52;31.45;;;16.77;;
20104;SDS011;10212;42.714;23.310;2023-01-15T01:18:53;29.05;;;15.20;;
20104;SDS011;10212;42.714;23.310;2023-01-15T01:28:54;28.60;;;15.32;;
20104;SDS011;10212;42.714;23.310;2023-01-15T01:38:55;26.30;;;13.93;;
20104;SDS011;10212;42.714;23.310;2023-01-15T01:49:00;26.00;;;13.45;;
20104;SDS011;10212;42.714;23.310;2023-01-15T01:59:05;24.60;;;13.10;;
20104;SDS011;10212;42.714;23.310;2023-01-15T02:09:06;22.77;;;11.85;;
20104;SDS011;10212;42.714;23.310;2023-01-15T02:39:48;23.15;;;12.95;;
20104;SDS011;10212;42.714;23.310;2023-01-15T02:49:51;27.20;;;13.00;;
20104;SDS011;10212;42.714;23.310;2023-01-15T02:59:53;23.73;;;12.43;;
20104;SDS011;10212;42.714;23.310;2023-01-15T03:09:57;22.35;;;11.88;;
20104;SDS011;10212;42.714;23.310;2023-01-15T03:20:02;21.52;;;12.07;;
20104;SDS011;10212;42.714;23.310;2023-01-15T03:30:18;24.10;;;12.88;;
20104;SDS011;10212;42.714;23.310;2023-01-15T03:40:20;24.85;;;14.00;;
20104;SDS011;10212;42.714;23.310;2023-01-15T03:50:37;23.98;;;13.13;;
20104;SDS011;10212;42.714;23.310;2023-01-15T04:00:42;23.10;;;12.10;;
20104;SDS011;10212;42.714;23.310;2023-01-15T04:10:52;24.83;;;13.23;;
20104;SDS011;10212;42.714;23.310;2023-01-15T04:20:57;22.10;;;12.63;;
20104;SDS011;10212;42.714;23.310;2023-01-15T04:30:57;24.15;;;12.85;;
20104;SDS011;10212;42.714;23.310;2023-01-15T04:41:00;21.33;;;11.93;;
20104;SDS011;10212;42.714;23.310;2023-01-15T04:51:21;20.45;;;10.90;;
20104;SDS011;10212;42.714;23.310;2023-01-15T05:01:22;18.60;;;10.70;;
20104;SDS011;10212;42.714;23.310;2023-01-15T05:11:22;22.30;;;11.60;;
20104;SDS011;10212;42.714;23.310;2023-01-15T05:21:24;20.25;;;10.93;;
20104;SDS011;10212;42.714;23.310;2023-01-15T05:31:27;19.75;;;10.48;;
20104;SDS011;10212;42.714;23.310;2023-01-15T05:41:29;15.93;;;8.75;;
20104;SDS011;10212;42.714;23.310;2023-01-15T05:51:48;18.58;;;9.52;;
20104;SDS011;10212;42.714;23.310;2023-01-15T06:01:49;17.23;;;9.27;;
20104;SDS011;10212;42.714;23.310;2023-01-15T06:11:50;15.20;;;9.23;;
20104;SDS011;10212;42.714;23.310;2023-01-15T06:21:53;15.52;;;8.75;;
20104;SDS011;10212;42.714;23.310;2023-01-15T06:31:53;15.60;;;9.00;;
20104;SDS011;10212;42.714;23.310;2023-01-15T06:41:53;16.70;;;9.13;;
20104;SDS011;10212;42.714;23.310;2023-01-15T07:03:06;30.25;;;15.30;;
20104;SDS011;10212;42.714;23.310;2023-01-15T07:23:52;28.97;;;15.43;;
20104;SDS011;10212;42.714;23.310;2023-01-15T07:33:54;27.15;;;14.43;;
20104;SDS011;10212;42.714;23.310;2023-01-15T07:44:04;24.33;;;13.02;;
20104;SDS011;10212;42.714;23.310;2023-01-15T07:54:32;28.50;;;15.20;;
20104;SDS011;10212;42.714;23.310;2023-01-15T08:16:18;28.38;;;16.13;;
20104;SDS011;10212;42.714;23.310;2023-01-15T08:26:19;29.45;;;16.48;;
20104;SDS011;10212;42.714;23.310;2023-01-15T08:36:19;22.85;;;13.43;;
20104;SDS011;10212;42.714;23.310;2023-01-15T08:46:20;19.83;;;11.50;;
20104;SDS011;10212;42.714;23.310;2023-01-15T08:56:20;21.17;;;12.20;;
20104;SDS011;10212;42.714;23.310;2023-01-15T09:06:20;25.75;;;13.77;;
20104;SDS011;10212;42.714;23.310;2023-01-15T09:16:21;26.75;;;14.98;;
20104;SDS011;10212;42.714;23.310;2023-01-15T09:26:26;22.27;;;11.85;;
20104;SDS011;10212;42.714;23.310;2023-01-15T09:36:34;21.17;;;12.23;;
20104;SDS011;10212;42.714;23.310;2023-01-15T09:46:41;22.88;;;13.23;;
20104;SDS011;10212;42.714;23.310;2023-01-15T09:56:52;25.27;;;13.63;;
20104;SDS011;10212;42.714;23.310;2023-01-15T10:07:38;35.22;;;18.75;;
20104;SDS011;10212;42.714;23.310;2023-01-15T10:17:24;30.15;;;17.23;;
20104;SDS011;10212;42.714;23.310;2023-01-15T10:27:28;26.08;;;15.00;;
20104;SDS011;10212;42.714;23.310;2023-01-15T10:37:36;26.90;;;14.77;;
20104;SDS011;10212;42.714;23.310;2023-01-15T10:47:41;22.45;;;13.15;;
20104;SDS011;10212;42.714;23.310;2023-01-15T11:08:22;23.23;;;13.27;;
20104;SDS011;10212;42.714;23.310;2023-01-15T11:18:29;26.13;;;14.43;;
20104;SDS011;10212;42.714;23.310;2023-01-15T11:28:52;23.20;;;13.10;;
20104;SDS011;10212;42.714;23.310;2023-01-15T11:38:54;17.60;;;9.93;;
20104;SDS011;10212;42.714;23.310;2023-01-15T11:48:55;16.10;;;9.88;;
20104;SDS011;10212;42.714;23.310;2023-01-15T11:59:15;16.13;;;9.00;;
20104;SDS011;10212;42.714;23.310;2023-01-15T12:09:28;14.43;;;9.10;;
20104;SDS011;10212;42.714;23.310;2023-01-15T12:19:44;18.85;;;9.55;;
20104;SDS011;10212;42.714;23.310;2023-01-15T12:30:05;15.18;;;9.40;;
20104;SDS011;10212;42.714;23.310;2023-01-15T13:10:36;13.73;;;8.73;;
20104;SDS011;10212;42.714;23.310;2023-01-15T13:20:47;14.13;;;9.10;;
20104;SDS011;10212;42.714;23.310;2023-01-15T13:30:54;14.52;;;8.90;;
20104;SDS011;10212;42.714;23.310;2023-01-15T13:41:04;16.73;;;10.10;;
20104;SDS011;10212;42.714;23.310;2023-01-15T13:51:07;13.73;;;8.75;;
20104;SDS011;10212;42.714;23.310;2023-01-15T14:01:33;15.48;;;9.10;;
20104;SDS011;10212;42.714;23.310;2023-01-15T14:11:36;15.10;;;9.50;;
20104;SDS011;10212;42.714;23.310;2023-01-15T14:22:24;17.85;;;10.13;;
20104;SDS011;10212;42.714;23.310;2023-01-15T14:42:41;17.52;;;9.52;;
20104;SDS011;10212;42.714;23.310;2023-01-15T14:53:23;18.65;;;10.18;;
20104;SDS011;10212;42.714;23.310;2023-01-15T15:03:32;17.60;;;11.13;;
20104;SDS011;10212;42.714;23.310;2023-01-15T15:23:42;23.88;;;13.43;;
20104;SDS011;10212;42.714;23.310;2023-01-15T15:33:45;23.70;;;14.15;;
20104;SDS011;10212;42.714;23.310;2023-01-15T15:43:50;30.80;;;15.60;;
20104;SDS011;10212;42.714;23.310;2023-01-15T15:54:23;32.20;;;17.05;;
20104;SDS011;10212;42.714;23.310;2023-01-15T16:04:26;37.88;;;19.10;;
20104;SDS011;10212;42.714;23.310;2023-01-15T16:14:28;32.25;;;18.67;;
20104;SDS011;10212;42.714;23.310;2023-01-15T16:24:33;39.47;;;20.05;;
20104;SDS011;10212;42.714;23.310;2023-01-15T16:34:34;37.13;;;19.85;;
20104;SDS011;10212;42.714;23.310;2023-01-15T16:44:36;35.05;;;19.17;;
20104;SDS011;10212;42.714;23.310;2023-01-15T16:54:43;38.13;;;20.05;;
20104;SDS011;10212;42.714;23.310;2023-01-15T17:04:45;39.90;;;19.70;;
20104;SDS011;10212;42.714;23.310;2023-01-15T17:14:46;35.22;;;18.73;;
20104;SDS011;10212;42.714;23.310;2023-01-15T17:24:47;34.05;;;17.80;;
20104;SDS011;10212;42.714;23.310;2023-01-15T17:34:53;33.25;;;18.33;;
20104;SDS011;10212;42.714;23.310;2023-01-15T17:44:53;29.15;;;15.88;;
20104;SDS011;10212;42.714;23.310;2023-01-15T17:54:54;28.67;;;16.15;;
20104;SDS011;10212;42.714;23.310;2023-01-15T18:05:13;34.47;;;18.58;;
20104;SDS011;10212;42.714;23.310;2023-01-15T18:15:25;35.72;;;17.67;;
20104;SDS011;10212;42.714;23.310;2023-01-15T18:25:26;41.03;;;22.77;;
20104;SDS011;10212;42.714;23.310;2023-01-15T18:35:26;47.90;;;24.48;;
20104;SDS011;10212;42.714;23.310;2023-01-15T18:45:27;40.50;;;19.92;;
20104;SDS011;10212;42.714;23.310;2023-01-15T18:56:06;36.20;;;19.02;;
20104;SDS011;10212;42.714;23.310;2023-01-15T19:06:07;37.97;;;20.97;;
20104;SDS011;10212;42.714;23.310;2023-01-15T19:16:11;39.25;;;19.88;;
20104;SDS011;10212;42.714;23.310;2023-01-15T19:26:29;39.10;;;20.08;;
20104;SDS011;10212;42.714;23.310;2023-01-15T19:36:30;36.55;;;19.73;;
20104;SDS011;10212;42.714;23.310;2023-01-15T19:46:30;36.97;;;19.42;;
20104;SDS011;10212;42.714;23.310;2023-01-15T19:56:49;31.77;;;17.38;;
20104;SDS011;10212;42.714;23.310;2023-01-15T20:06:50;36.97;;;18.33;;
20104;SDS011;10212;42.714;23.310;2023-01-15T20:16:50;35.35;;;18.33;;
20104;SDS011;10212;42.714;23.310;2023-01-15T20:26:50;34.33;;;18.10;;
20104;SDS011;10212;42.714;23.310;2023-01-15T20:36:51;37.05;;;18.50;;
20104;SDS011;10212;42.714;23.310;2023-01-15T20:46:51;38.13;;;19.70;;
20104;SDS011;10212;42.714;23.310;2023-01-15T20:56:52;35.88;;;19.67;;
20104;SDS011;10212;42.714;23.310;2023-01-15T21:06:52;41.85;;;21.30;;
20104;SDS011;10212;42.714;23.310;2023-01-15T21:16:53;41.90;;;20.85;;
20104;SDS011;10212;42.714;23.310;2023-01-15T21:26:53;47.13;;;24.27;;
20104;SDS011;10212;42.714;23.310;2023-01-15T21:36:53;42.30;;;21.67;;
20104;SDS011;10212;42.714;23.310;2023-01-15T21:46:54;51.20;;;23.92;;
20104;SDS011;10212;42.714;23.310;2023-01-15T21:56:54;84.03;;;40.60;;
20104;SDS011;10212;42.714;23.310;2023-01-15T22:06:55;73.78;;;35.88;;
20104;SDS011;10212;42.714;23.310;2023-01-15T22:16:56;94.80;;;43.97;;
20104;SDS011;10212;42.714;23.310;2023-01-15T22:26:58;85.65;;;41.58;;
20104;SDS011;10212;42.714;23.310;2023-01-15T22:37:00;81.03;;;40.45;;
20104;SDS011;10212;42.714;23.310;2023-01-15T22:47:01;87.00;;;40.45;;
20104;SDS011;10212;42.714;23.310;2023-01-15T22:57:03;80.80;;;38.58;;
20104;SDS011;10212;42.714;23.310;2023-01-15T23:07:04;78.35;;;37.33;;
20104;SDS011;10212;42.714;23.310;2023-01-15T23:17:04;78.60;;;36.15;;
20104;SDS011;10212;42.714;23.310;2023-01-15T23:27:05;72.93;;;34.33;;
20104;SDS011;10212;42.714;23.310;2023-01-15T23:37:05;70.82;;;33.05;;
20104;SDS011;10212;42.714;23.310;2023-01-15T23:47:06;64.13;;;30.70;;
20104;SDS011;10212;42.714;23.310;2023-01-15T23:57:07;61.03;;;29.38;;
